This is the latest recevied weather packets stored in our database for station/object KB9PMA-1. If no packets are shown the sender has not sent any weather packets the latest 1 day(s).
| Time | Temp. | Humidity | Pressure | Rain* | Wind** | Luminosity | Snow |
|---|---|---|---|---|---|---|---|
| 1777968777 | 13.33° C | 94% | 1004.9 hPa | 0.25 mm | 1.79 m/s, 205° | - | - |
| 1777968477 | 13.33° C | 94% | 1006.3 hPa | 0.51 mm | 2.68 m/s, 164° | - | - |
| 1777968177 | 13.33° C | 94% | 1006.7 hPa | 0.51 mm | 0.89 m/s, 219° | - | - |
| 1777967877 | 13.33° C | 94% | 1006.8 hPa | 0.76 mm | 0.45 m/s, 206° | - | - |
| 1777967577 | 13.33° C | 95% | 1006.7 hPa | 1.02 mm | 2.24 m/s, 216° | - | - |
| 1777967277 | 13.33° C | 94% | 1006.7 hPa | 1.02 mm | 0.89 m/s, 216° | - | - |
| 1777966977 | 13.33° C | 94% | 1006.6 hPa | 1.78 mm | 0.45 m/s, 217° | - | - |
| 1777966677 | 13.33° C | 95% | 1006.4 hPa | 1.78 mm | 0.89 m/s, 226° | - | - |
| 1777966377 | 13.33° C | 94% | 1006.2 hPa | 1.78 mm | 1.34 m/s, 229° | - | - |
| 1777966077 | 13.33° C | 94% | 1005.9 hPa | 1.78 mm | 1.34 m/s, 206° | - | - |
| 1777965777 | 13.33° C | 95% | 1006 hPa | 2.29 mm | 0.89 m/s, 222° | - | - |
| 1777965477 | 13.33° C | 95% | 1005.7 hPa | 2.29 mm | 2.24 m/s, 187° | - | - |
| 1777965413 | 13.33° C | 95% | 1006 hPa | 2.79 mm | 1.79 m/s, 187° | - | - |
| 1777965177 | 13.33° C | 95% | 1006 hPa | 2.79 mm | 1.79 m/s, 187° | - | - |
| 1777964877 | 13.33° C | 95% | 1006.2 hPa | 3.3 mm | 3.58 m/s, 71° | - | - |
| 1777964577 | 13.33° C | 95% | 1006 hPa | 4.06 mm | 2.24 m/s, 108° | - | - |
| 1777964278 | 13.33° C | 95% | 1006.2 hPa | 4.06 mm | 2.24 m/s, 192° | - | - |
| 1777964047 | 13.33° C | 95% | 1007 hPa | 3.81 mm | 2.24 m/s, 198° | - | - |
| 1777963978 | 13.33° C | 95% | 1007 hPa | 3.81 mm | 2.24 m/s, 198° | - | - |
| 1777963678 | 13.33° C | 94% | 1007.7 hPa | 3.56 mm | 0.89 m/s, 217° | - | - |
| 1777963377 | 13.33° C | 94% | 1007.7 hPa | 3.3 mm | 0 m/s | - | - |
| 1777963077 | 13.89° C | 93% | 1007.9 hPa | 3.56 mm | 0 m/s | - | - |
| 1777962778 | 13.89° C | 93% | 1008 hPa | 3.81 mm | 0.45 m/s, 212° | - | - |
| 1777962478 | 13.89° C | 93% | 1008.1 hPa | 4.32 mm | 0 m/s | - | - |
| 1777962177 | 13.89° C | 92% | 1008 hPa | 3.81 mm | 0.45 m/s, 212° | - | - |
* Rain latest hour (hover to see other rain measurements)
** Current wind speed in m/s (hover to see current wind gust speed)